Hancock, Pennsylvania
Current Conditions -  °F | °C
As of 1:15 PM on Wednesday 28 Jan 2015 (Local Time) from KXLL Reporting Station
Clear Clear  
Wind Chill: 22°   Ceiling: Unl
Heat Index: 30°   Visibility: 10mi
Dew Point:   Wind: 9mph
Humidity: 32%   Direction: 290°WNW
Pressure: 30.13"   Gusts: 18mph
Location:  40.4939°N, 75.6842°W
Report Text: KXLL 281815Z AUTO 29008G16KT 10SM CLR M01/M16 A3013 RMK AO2
Loading
Personal Weather Stations






























Interactive Weather Map New forecast layout! Learn more

10-Day Weather Forecast

Advertisements
Track Severe Weather on mobile